sensor_id;sensor_type;location;lat;lon;timestamp;pressure;altitude;pressure_sealevel;temperature;humidity
72370;BME280;60343;-32.030;115.880;2022-12-29T00:01:12;101578.34;;;28.59;28.19
72370;BME280;60343;-32.030;115.880;2022-12-29T00:03:39;101580.00;;;28.55;27.84
72370;BME280;60343;-32.030;115.880;2022-12-29T00:06:07;101576.94;;;28.62;27.09
72370;BME280;60343;-32.030;115.880;2022-12-29T00:08:35;101577.56;;;28.74;26.37
72370;BME280;60343;-32.030;115.880;2022-12-29T00:11:03;101567.63;;;28.98;26.87
72370;BME280;60343;-32.030;115.880;2022-12-29T00:13:36;101572.03;;;29.25;25.95
72370;BME280;60343;-32.030;115.880;2022-12-29T00:16:05;101560.44;;;29.18;26.33
72370;BME280;60343;-32.030;115.880;2022-12-29T00:18:34;101570.34;;;29.29;26.13
72370;BME280;60343;-32.030;115.880;2022-12-29T00:21:02;101559.28;;;29.54;26.07
72370;BME280;60343;-32.030;115.880;2022-12-29T00:23:29;101559.19;;;29.79;25.73
72370;BME280;60343;-32.030;115.880;2022-12-29T00:25:57;101560.25;;;29.99;24.92
72370;BME280;60343;-32.030;115.880;2022-12-29T00:28:25;101558.41;;;30.28;24.72
72370;BME280;60343;-32.030;115.880;2022-12-29T00:30:59;101559.50;;;30.37;24.32
72370;BME280;60343;-32.030;115.880;2022-12-29T00:33:29;101558.00;;;30.55;24.19
72370;BME280;60343;-32.030;115.880;2022-12-29T00:36:01;101544.66;;;30.67;23.44
72370;BME280;60343;-32.030;115.880;2022-12-29T00:38:29;101546.88;;;30.65;24.20
72370;BME280;60343;-32.030;115.880;2022-12-29T00:40:59;101543.97;;;30.80;23.95
72370;BME280;60343;-32.030;115.880;2022-12-29T00:43:26;101539.78;;;30.88;23.92
72370;BME280;60343;-32.030;115.880;2022-12-29T00:46:02;101544.72;;;30.57;23.62
72370;BME280;60343;-32.030;115.880;2022-12-29T00:48:30;101537.44;;;30.71;23.97
72370;BME280;60343;-32.030;115.880;2022-12-29T00:50:57;101536.78;;;30.79;23.40
72370;BME280;60343;-32.030;115.880;2022-12-29T00:53:25;101539.53;;;31.18;23.54
72370;BME280;60343;-32.030;115.880;2022-12-29T00:55:53;101535.66;;;31.43;23.98
72370;BME280;60343;-32.030;115.880;2022-12-29T00:58:21;101524.47;;;31.77;22.93
72370;BME280;60343;-32.030;115.880;2022-12-29T01:00:48;101531.75;;;31.91;22.30
72370;BME280;60343;-32.030;115.880;2022-12-29T01:03:21;101520.31;;;31.98;23.12
72370;BME280;60343;-32.030;115.880;2022-12-29T01:05:49;101524.56;;;31.90;22.33
72370;BME280;60343;-32.030;115.880;2022-12-29T01:08:17;101517.53;;;32.35;22.75
72370;BME280;60343;-32.030;115.880;2022-12-29T01:10:45;101504.81;;;32.53;22.29
72370;BME280;60343;-32.030;115.880;2022-12-29T01:13:13;101511.44;;;32.71;22.65
72370;BME280;60343;-32.030;115.880;2022-12-29T01:15:49;101507.41;;;32.63;22.65
72370;BME280;60343;-32.030;115.880;2022-12-29T01:18:23;101508.59;;;32.76;23.22
72370;BME280;60343;-32.030;115.880;2022-12-29T01:20:51;101508.91;;;32.74;21.55
72370;BME280;60343;-32.030;115.880;2022-12-29T01:23:19;101502.72;;;32.64;22.72
72370;BME280;60343;-32.030;115.880;2022-12-29T01:25:46;101503.03;;;32.76;22.71
72370;BME280;60343;-32.030;115.880;2022-12-29T01:28:16;101511.44;;;33.03;21.77
72370;BME280;60343;-32.030;115.880;2022-12-29T01:30:44;101501.09;;;33.36;21.88
72370;BME280;60343;-32.030;115.880;2022-12-29T01:33:12;101506.97;;;33.48;20.47
72370;BME280;60343;-32.030;115.880;2022-12-29T01:35:45;101504.19;;;33.21;21.46
72370;BME280;60343;-32.030;115.880;2022-12-29T01:38:13;101510.88;;;33.34;22.36
72370;BME280;60343;-32.030;115.880;2022-12-29T01:40:46;101510.34;;;32.86;22.98
72370;BME280;60343;-32.030;115.880;2022-12-29T01:43:14;101493.81;;;32.81;22.01
72370;BME280;60343;-32.030;115.880;2022-12-29T01:45:49;101498.25;;;32.95;22.00
72370;BME280;60343;-32.030;115.880;2022-12-29T01:48:19;101493.75;;;32.99;20.81
72370;BME280;60343;-32.030;115.880;2022-12-29T01:50:54;101497.31;;;33.18;21.45
72370;BME280;60343;-32.030;115.880;2022-12-29T01:53:26;101493.09;;;33.35;21.73
72370;BME280;60343;-32.030;115.880;2022-12-29T01:55:57;101502.44;;;33.25;21.00
72370;BME280;60343;-32.030;115.880;2022-12-29T01:58:32;101498.84;;;33.25;21.67
72370;BME280;60343;-32.030;115.880;2022-12-29T02:01:04;101495.72;;;32.99;22.84
72370;BME280;60343;-32.030;115.880;2022-12-29T02:03:33;101489.75;;;33.05;24.49
72370;BME280;60343;-32.030;115.880;2022-12-29T02:06:11;101491.28;;;33.11;24.24
72370;BME280;60343;-32.030;115.880;2022-12-29T02:08:41;101480.91;;;33.03;23.85
72370;BME280;60343;-32.030;115.880;2022-12-29T02:11:10;101479.34;;;32.97;21.85
72370;BME280;60343;-32.030;115.880;2022-12-29T02:13:38;101478.53;;;33.10;22.31
72370;BME280;60343;-32.030;115.880;2022-12-29T02:16:17;101475.50;;;33.26;21.83
72370;BME280;60343;-32.030;115.880;2022-12-29T02:18:54;101467.38;;;33.43;21.05
72370;BME280;60343;-32.030;115.880;2022-12-29T02:21:48;101462.34;;;33.45;21.81
72370;BME280;60343;-32.030;115.880;2022-12-29T02:24:51;101467.13;;;33.67;21.58
72370;BME280;60343;-32.030;115.880;2022-12-29T02:27:36;101455.94;;;33.72;21.45
72370;BME280;60343;-32.030;115.880;2022-12-29T02:30:13;101459.75;;;33.76;22.48
72370;BME280;60343;-32.030;115.880;2022-12-29T02:32:54;101452.41;;;33.93;21.39
72370;BME280;60343;-32.030;115.880;2022-12-29T02:35:32;101445.00;;;34.25;21.18
72370;BME280;60343;-32.030;115.880;2022-12-29T02:38:12;101442.84;;;34.44;21.12
72370;BME280;60343;-32.030;115.880;2022-12-29T02:40:48;101439.56;;;34.42;21.19
72370;BME280;60343;-32.030;115.880;2022-12-29T02:43:25;101434.13;;;34.59;20.05
72370;BME280;60343;-32.030;115.880;2022-12-29T02:45:56;101428.72;;;34.85;20.93
72370;BME280;60343;-32.030;115.880;2022-12-29T02:48:36;101422.34;;;34.93;20.68
72370;BME280;60343;-32.030;115.880;2022-12-29T02:51:09;101422.19;;;34.90;20.29
72370;BME280;60343;-32.030;115.880;2022-12-29T02:53:40;101417.38;;;34.81;20.27
72370;BME280;60343;-32.030;115.880;2022-12-29T02:56:08;101414.16;;;34.97;19.17
72370;BME280;60343;-32.030;115.880;2022-12-29T02:58:36;101414.97;;;34.88;18.50
72370;BME280;60343;-32.030;115.880;2022-12-29T03:01:21;101406.69;;;35.06;19.22
72370;BME280;60343;-32.030;115.880;2022-12-29T03:04:05;101405.16;;;35.31;19.20
72370;BME280;60343;-32.030;115.880;2022-12-29T03:06:46;101397.47;;;35.53;18.68
72370;BME280;60343;-32.030;115.880;2022-12-29T03:09:20;101391.78;;;35.67;20.00
72370;BME280;60343;-32.030;115.880;2022-12-29T03:11:59;101395.88;;;35.87;18.58
72370;BME280;60343;-32.030;115.880;2022-12-29T03:14:33;101379.50;;;35.85;18.01
72370;BME280;60343;-32.030;115.880;2022-12-29T03:17:08;101391.13;;;35.79;17.13
72370;BME280;60343;-32.030;115.880;2022-12-29T03:19:46;101390.31;;;35.69;18.13
72370;BME280;60343;-32.030;115.880;2022-12-29T03:22:19;101385.38;;;35.49;16.95
72370;BME280;60343;-32.030;115.880;2022-12-29T03:24:50;101378.31;;;35.35;17.41
72370;BME280;60343;-32.030;115.880;2022-12-29T03:27:21;101380.41;;;35.29;18.51
72370;BME280;60343;-32.030;115.880;2022-12-29T03:29:52;101371.78;;;35.65;18.96
72370;BME280;60343;-32.030;115.880;2022-12-29T03:32:24;101369.31;;;35.98;18.17
72370;BME280;60343;-32.030;115.880;2022-12-29T03:34:59;101361.41;;;36.34;17.35
72370;BME280;60343;-32.030;115.880;2022-12-29T03:37:30;101354.88;;;36.30;16.01
72370;BME280;60343;-32.030;115.880;2022-12-29T03:40:00;101356.38;;;36.19;16.35
72370;BME280;60343;-32.030;115.880;2022-12-29T03:42:32;101356.34;;;36.36;17.35
72370;BME280;60343;-32.030;115.880;2022-12-29T03:45:01;101347.56;;;36.55;17.34
72370;BME280;60343;-32.030;115.880;2022-12-29T03:47:32;101347.09;;;36.62;16.10
72370;BME280;60343;-32.030;115.880;2022-12-29T03:50:11;101345.41;;;36.61;18.18
72370;BME280;60343;-32.030;115.880;2022-12-29T03:52:38;101337.22;;;36.55;16.89
72370;BME280;60343;-32.030;115.880;2022-12-29T03:55:07;101332.75;;;36.72;16.41
72370;BME280;60343;-32.030;115.880;2022-12-29T03:57:38;101324.00;;;37.03;16.19
72370;BME280;60343;-32.030;115.880;2022-12-29T04:00:07;101329.94;;;37.10;14.28
72370;BME280;60343;-32.030;115.880;2022-12-29T04:02:35;101318.91;;;37.34;14.83
72370;BME280;60343;-32.030;115.880;2022-12-29T04:05:08;101311.16;;;37.60;16.76
72370;BME280;60343;-32.030;115.880;2022-12-29T04:07:36;101316.31;;;37.50;15.96
72370;BME280;60343;-32.030;115.880;2022-12-29T04:10:04;101301.00;;;37.56;14.76
72370;BME280;60343;-32.030;115.880;2022-12-29T04:12:32;101296.66;;;37.67;16.03
72370;BME280;60343;-32.030;115.880;2022-12-29T04:15:00;101300.03;;;37.72;14.37
72370;BME280;60343;-32.030;115.880;2022-12-29T04:17:27;101292.13;;;37.74;13.39
72370;BME280;60343;-32.030;115.880;2022-12-29T04:19:55;101290.13;;;37.75;13.59
72370;BME280;60343;-32.030;115.880;2022-12-29T04:22:29;101275.19;;;37.92;14.68
72370;BME280;60343;-32.030;115.880;2022-12-29T04:24:56;101285.59;;;38.03;14.99
72370;BME280;60343;-32.030;115.880;2022-12-29T04:27:24;101278.88;;;38.16;13.30
72370;BME280;60343;-32.030;115.880;2022-12-29T04:29:52;101278.06;;;38.16;14.04
72370;BME280;60343;-32.030;115.880;2022-12-29T04:32:19;101266.19;;;37.86;14.13
72370;BME280;60343;-32.030;115.880;2022-12-29T04:34:47;101266.13;;;37.62;12.87
72370;BME280;60343;-32.030;115.880;2022-12-29T04:37:15;101263.56;;;37.69;12.98
72370;BME280;60343;-32.030;115.880;2022-12-29T04:39:48;101260.31;;;37.79;12.79
72370;BME280;60343;-32.030;115.880;2022-12-29T04:42:16;101264.34;;;37.57;12.34
72370;BME280;60343;-32.030;115.880;2022-12-29T04:44:44;101258.44;;;37.71;12.81
72370;BME280;60343;-32.030;115.880;2022-12-29T04:47:11;101256.66;;;37.87;13.30
72370;BME280;60343;-32.030;115.880;2022-12-29T04:49:39;101245.31;;;38.16;13.17
72370;BME280;60343;-32.030;115.880;2022-12-29T04:52:07;101240.09;;;37.94;12.40
72370;BME280;60343;-32.030;115.880;2022-12-29T04:54:35;101232.97;;;38.17;11.61
72370;BME280;60343;-32.030;115.880;2022-12-29T04:57:08;101235.84;;;38.09;13.05
72370;BME280;60343;-32.030;115.880;2022-12-29T04:59:35;101219.88;;;38.09;13.02
72370;BME280;60343;-32.030;115.880;2022-12-29T05:02:03;101220.81;;;38.26;12.79
72370;BME280;60343;-32.030;115.880;2022-12-29T05:04:31;101226.06;;;38.15;12.16
72370;BME280;60343;-32.030;115.880;2022-12-29T05:06:59;101218.47;;;38.03;12.51
72370;BME280;60343;-32.030;115.880;2022-12-29T05:09:26;101215.72;;;38.28;14.54
72370;BME280;60343;-32.030;115.880;2022-12-29T05:11:54;101218.75;;;38.22;13.94
72370;BME280;60343;-32.030;115.880;2022-12-29T05:14:27;101211.13;;;38.23;13.06
72370;BME280;60343;-32.030;115.880;2022-12-29T05:16:55;101197.97;;;38.11;13.04
72370;BME280;60343;-32.030;115.880;2022-12-29T05:19:23;101202.03;;;38.38;13.27
72370;BME280;60343;-32.030;115.880;2022-12-29T05:21:51;101188.91;;;38.27;13.34
72370;BME280;60343;-32.030;115.880;2022-12-29T05:24:19;101196.69;;;38.33;12.98
72370;BME280;60343;-32.030;115.880;2022-12-29T05:26:46;101195.19;;;38.36;13.39
72370;BME280;60343;-32.030;115.880;2022-12-29T05:29:14;101184.91;;;38.40;13.71
72370;BME280;60343;-32.030;115.880;2022-12-29T05:31:47;101182.97;;;38.52;12.85
72370;BME280;60343;-32.030;115.880;2022-12-29T05:34:15;101173.94;;;38.71;13.35
72370;BME280;60343;-32.030;115.880;2022-12-29T05:36:43;101175.34;;;38.65;12.66
72370;BME280;60343;-32.030;115.880;2022-12-29T05:39:11;101174.56;;;38.52;13.78
72370;BME280;60343;-32.030;115.880;2022-12-29T05:41:38;101177.22;;;38.37;13.24
72370;BME280;60343;-32.030;115.880;2022-12-29T05:44:06;101178.06;;;38.49;16.26
72370;BME280;60343;-32.030;115.880;2022-12-29T05:46:34;101166.38;;;38.59;15.54
72370;BME280;60343;-32.030;115.880;2022-12-29T05:49:07;101164.16;;;38.65;16.49
72370;BME280;60343;-32.030;115.880;2022-12-29T05:51:35;101154.41;;;38.47;16.99
72370;BME280;60343;-32.030;115.880;2022-12-29T05:54:03;101155.56;;;38.46;16.55
72370;BME280;60343;-32.030;115.880;2022-12-29T05:56:31;101153.09;;;38.56;18.00
72370;BME280;60343;-32.030;115.880;2022-12-29T05:58:59;101161.84;;;38.18;18.95
72370;BME280;60343;-32.030;115.880;2022-12-29T06:01:26;101156.72;;;38.20;17.35
72370;BME280;60343;-32.030;115.880;2022-12-29T06:03:55;101159.19;;;38.22;17.34
72370;BME280;60343;-32.030;115.880;2022-12-29T06:06:30;101166.72;;;37.97;17.43
72370;BME280;60343;-32.030;115.880;2022-12-29T06:09:00;101154.31;;;37.62;18.76
72370;BME280;60343;-32.030;115.880;2022-12-29T06:11:28;101161.56;;;37.09;18.62
72370;BME280;60343;-32.030;115.880;2022-12-29T06:13:56;101157.59;;;37.31;19.84
72370;BME280;60343;-32.030;115.880;2022-12-29T06:16:23;101168.19;;;37.37;21.02
72370;BME280;60343;-32.030;115.880;2022-12-29T06:18:51;101164.84;;;37.44;21.22
72370;BME280;60343;-32.030;115.880;2022-12-29T06:21:19;101167.06;;;37.51;20.67
72370;BME280;60343;-32.030;115.880;2022-12-29T06:23:52;101157.22;;;37.32;18.98
72370;BME280;60343;-32.030;115.880;2022-12-29T06:26:20;101143.91;;;37.17;20.52
72370;BME280;60343;-32.030;115.880;2022-12-29T06:28:48;101156.25;;;36.95;19.67
72370;BME280;60343;-32.030;115.880;2022-12-29T06:31:15;101153.13;;;36.97;20.86
72370;BME280;60343;-32.030;115.880;2022-12-29T06:33:43;101152.22;;;36.84;20.78
72370;BME280;60343;-32.030;115.880;2022-12-29T06:36:11;101146.50;;;37.02;19.54
72370;BME280;60343;-32.030;115.880;2022-12-29T06:38:39;101147.75;;;36.92;17.48
72370;BME280;60343;-32.030;115.880;2022-12-29T06:41:12;101146.63;;;37.05;15.74
72370;BME280;60343;-32.030;115.880;2022-12-29T06:43:39;101148.75;;;37.08;17.17
72370;BME280;60343;-32.030;115.880;2022-12-29T06:46:07;101146.78;;;37.09;17.56
72370;BME280;60343;-32.030;115.880;2022-12-29T06:51:31;101132.19;;;36.82;15.14
72370;BME280;60343;-32.030;115.880;2022-12-29T06:53:59;101138.41;;;36.38;14.65
72370;BME280;60343;-32.030;115.880;2022-12-29T06:56:32;101138.38;;;36.17;15.31
72370;BME280;60343;-32.030;115.880;2022-12-29T06:59:00;101143.34;;;36.03;17.04
72370;BME280;60343;-32.030;115.880;2022-12-29T07:01:28;101144.94;;;36.21;17.25
72370;BME280;60343;-32.030;115.880;2022-12-29T07:03:56;101133.97;;;36.16;16.94
72370;BME280;60343;-32.030;115.880;2022-12-29T07:06:23;101135.34;;;36.01;16.78
72370;BME280;60343;-32.030;115.880;2022-12-29T07:08:51;101143.00;;;36.04;16.14
72370;BME280;60343;-32.030;115.880;2022-12-29T07:11:19;101124.72;;;36.24;16.77
72370;BME280;60343;-32.030;115.880;2022-12-29T07:13:52;101134.59;;;36.22;16.61
72370;BME280;60343;-32.030;115.880;2022-12-29T07:16:20;101133.72;;;35.92;17.75
72370;BME280;60343;-32.030;115.880;2022-12-29T07:18:48;101134.31;;;35.68;17.63
72370;BME280;60343;-32.030;115.880;2022-12-29T07:21:15;101136.00;;;35.43;17.84
72370;BME280;60343;-32.030;115.880;2022-12-29T07:23:43;101131.09;;;35.32;18.55
72370;BME280;60343;-32.030;115.880;2022-12-29T07:26:13;101132.22;;;35.48;18.65
72370;BME280;60343;-32.030;115.880;2022-12-29T07:28:41;101136.44;;;35.62;19.30
72370;BME280;60343;-32.030;115.880;2022-12-29T07:31:18;101129.38;;;35.65;18.35
72370;BME280;60343;-32.030;115.880;2022-12-29T07:33:46;101134.94;;;35.74;19.41
72370;BME280;60343;-32.030;115.880;2022-12-29T07:36:14;101122.28;;;35.85;19.11
72370;BME280;60343;-32.030;115.880;2022-12-29T07:38:43;101130.28;;;35.95;17.21
72370;BME280;60343;-32.030;115.880;2022-12-29T07:41:11;101131.22;;;35.52;17.81
72370;BME280;60343;-32.030;115.880;2022-12-29T07:43:39;101132.09;;;35.10;19.02
72370;BME280;60343;-32.030;115.880;2022-12-29T07:46:07;101130.97;;;34.94;19.99
72370;BME280;60343;-32.030;115.880;2022-12-29T07:48:40;101128.81;;;35.08;20.98
72370;BME280;60343;-32.030;115.880;2022-12-29T07:51:10;101128.00;;;35.33;21.55
72370;BME280;60343;-32.030;115.880;2022-12-29T07:53:38;101133.06;;;35.14;22.85
72370;BME280;60343;-32.030;115.880;2022-12-29T07:56:06;101132.41;;;34.91;23.52
72370;BME280;60343;-32.030;115.880;2022-12-29T07:58:34;101133.25;;;35.09;23.49
72370;BME280;60343;-32.030;115.880;2022-12-29T08:01:02;101136.53;;;35.11;24.47
72370;BME280;60343;-32.030;115.880;2022-12-29T08:03:29;101135.06;;;35.05;24.86
72370;BME280;60343;-32.030;115.880;2022-12-29T08:06:04;101137.19;;;34.91;25.50
72370;BME280;60343;-32.030;115.880;2022-12-29T08:08:31;101139.47;;;34.71;25.23
72370;BME280;60343;-32.030;115.880;2022-12-29T08:10:59;101133.97;;;34.32;26.18
72370;BME280;60343;-32.030;115.880;2022-12-29T08:13:27;101129.97;;;34.16;25.53
72370;BME280;60343;-32.030;115.880;2022-12-29T08:15:55;101117.97;;;33.89;26.48
72370;BME280;60343;-32.030;115.880;2022-12-29T08:18:24;101124.00;;;33.91;27.03
72370;BME280;60343;-32.030;115.880;2022-12-29T08:20:52;101127.44;;;33.57;27.43
72370;BME280;60343;-32.030;115.880;2022-12-29T08:23:25;101115.56;;;33.35;28.25
72370;BME280;60343;-32.030;115.880;2022-12-29T08:25:58;101116.91;;;33.01;28.35
72370;BME280;60343;-32.030;115.880;2022-12-29T08:28:26;101119.25;;;33.08;28.90
72370;BME280;60343;-32.030;115.880;2022-12-29T08:30:56;101121.03;;;33.04;29.97
72370;BME280;60343;-32.030;115.880;2022-12-29T08:33:24;101128.91;;;32.88;29.38
72370;BME280;60343;-32.030;115.880;2022-12-29T08:35:52;101121.47;;;32.97;28.17
72370;BME280;60343;-32.030;115.880;2022-12-29T08:38:25;101120.47;;;32.93;23.73
72370;BME280;60343;-32.030;115.880;2022-12-29T08:40:54;101117.28;;;32.86;22.82
72370;BME280;60343;-32.030;115.880;2022-12-29T08:43:21;101124.00;;;32.71;23.91
72370;BME280;60343;-32.030;115.880;2022-12-29T08:45:49;101128.22;;;32.55;25.01
72370;BME280;60343;-32.030;115.880;2022-12-29T08:48:17;101119.75;;;32.38;25.14
72370;BME280;60343;-32.030;115.880;2022-12-29T08:50:45;101115.16;;;32.20;24.65
72370;BME280;60343;-32.030;115.880;2022-12-29T08:53:13;101109.59;;;32.06;24.29
72370;BME280;60343;-32.030;115.880;2022-12-29T08:55:46;101123.25;;;31.89;23.82
72370;BME280;60343;-32.030;115.880;2022-12-29T08:58:14;101116.66;;;31.85;24.17
72370;BME280;60343;-32.030;115.880;2022-12-29T09:00:42;101121.38;;;31.71;24.00
72370;BME280;60343;-32.030;115.880;2022-12-29T09:03:10;101121.72;;;31.50;23.56
72370;BME280;60343;-32.030;115.880;2022-12-29T09:05:38;101110.84;;;31.40;24.55
72370;BME280;60343;-32.030;115.880;2022-12-29T09:08:07;101122.63;;;31.32;25.39
72370;BME280;60343;-32.030;115.880;2022-12-29T09:10:35;101117.19;;;31.27;25.11
72370;BME280;60343;-32.030;115.880;2022-12-29T09:13:08;101112.13;;;31.29;25.40
72370;BME280;60343;-32.030;115.880;2022-12-29T09:15:36;101118.00;;;31.28;25.06
72370;BME280;60343;-32.030;115.880;2022-12-29T09:18:04;101114.41;;;31.27;24.81
72370;BME280;60343;-32.030;115.880;2022-12-29T09:20:34;101116.34;;;31.27;25.22
72370;BME280;60343;-32.030;115.880;2022-12-29T09:23:02;101118.91;;;31.23;24.03
72370;BME280;60343;-32.030;115.880;2022-12-29T09:25:30;101120.63;;;31.19;25.03
72370;BME280;60343;-32.030;115.880;2022-12-29T09:27:58;101120.31;;;31.21;25.15
72370;BME280;60343;-32.030;115.880;2022-12-29T09:30:31;101119.59;;;31.15;25.73
72370;BME280;60343;-32.030;115.880;2022-12-29T09:32:59;101118.09;;;31.04;26.06
72370;BME280;60343;-32.030;115.880;2022-12-29T09:35:27;101115.34;;;31.04;25.02
72370;BME280;60343;-32.030;115.880;2022-12-29T09:37:55;101116.00;;;30.96;25.92
72370;BME280;60343;-32.030;115.880;2022-12-29T09:40:27;101117.66;;;30.97;25.57
72370;BME280;60343;-32.030;115.880;2022-12-29T09:43:10;101120.78;;;30.90;25.54
72370;BME280;60343;-32.030;115.880;2022-12-29T09:45:57;101108.97;;;30.85;25.03
72370;BME280;60343;-32.030;115.880;2022-12-29T09:48:27;101117.13;;;30.76;24.71
72370;BME280;60343;-32.030;115.880;2022-12-29T09:50:59;101112.44;;;30.77;24.89
72370;BME280;60343;-32.030;115.880;2022-12-29T09:53:30;101117.56;;;30.64;24.94
72370;BME280;60343;-32.030;115.880;2022-12-29T09:56:00;101126.47;;;30.61;25.06
72370;BME280;60343;-32.030;115.880;2022-12-29T09:58:32;101126.41;;;30.66;24.21
72370;BME280;60343;-32.030;115.880;2022-12-29T10:01:13;101123.19;;;30.59;23.72
72370;BME280;60343;-32.030;115.880;2022-12-29T10:03:47;101121.91;;;30.52;25.41
72370;BME280;60343;-32.030;115.880;2022-12-29T10:06:19;101131.03;;;30.52;25.53
72370;BME280;60343;-32.030;115.880;2022-12-29T10:08:55;101123.94;;;30.46;25.75
72370;BME280;60343;-32.030;115.880;2022-12-29T10:11:34;101127.84;;;30.40;25.09
72370;BME280;60343;-32.030;115.880;2022-12-29T10:14:19;101122.66;;;30.34;24.85
72370;BME280;60343;-32.030;115.880;2022-12-29T10:17:04;101121.91;;;30.28;25.49
72370;BME280;60343;-32.030;115.880;2022-12-29T10:19:55;101119.44;;;30.08;26.97
72370;BME280;60343;-32.030;115.880;2022-12-29T10:22:37;101115.22;;;29.92;27.81
72370;BME280;60343;-32.030;115.880;2022-12-29T10:25:13;101128.09;;;29.72;28.25
72370;BME280;60343;-32.030;115.880;2022-12-29T10:27:43;101130.97;;;29.62;28.31
72370;BME280;60343;-32.030;115.880;2022-12-29T10:30:14;101139.38;;;29.47;26.88
72370;BME280;60343;-32.030;115.880;2022-12-29T10:32:50;101134.22;;;29.35;26.14
72370;BME280;60343;-32.030;115.880;2022-12-29T10:35:24;101138.38;;;29.28;26.91
72370;BME280;60343;-32.030;115.880;2022-12-29T10:37:58;101140.41;;;29.22;27.96
72370;BME280;60343;-32.030;115.880;2022-12-29T10:40:33;101141.97;;;28.94;28.56
72370;BME280;60343;-32.030;115.880;2022-12-29T10:43:12;101136.25;;;28.86;28.67
72370;BME280;60343;-32.030;115.880;2022-12-29T10:45:51;101143.78;;;28.65;28.56
72370;BME280;60343;-32.030;115.880;2022-12-29T10:48:27;101137.53;;;28.49;29.13
72370;BME280;60343;-32.030;115.880;2022-12-29T10:50:57;101146.13;;;28.38;30.51
72370;BME280;60343;-32.030;115.880;2022-12-29T10:53:27;101148.88;;;28.38;30.44
72370;BME280;60343;-32.030;115.880;2022-12-29T10:55:59;101147.34;;;28.17;31.21
72370;BME280;60343;-32.030;115.880;2022-12-29T10:58:28;101150.13;;;28.01;31.74
72370;BME280;60343;-32.030;115.880;2022-12-29T11:00:57;101144.91;;;27.90;31.94
72370;BME280;60343;-32.030;115.880;2022-12-29T11:03:43;101144.69;;;27.71;32.38
72370;BME280;60343;-32.030;115.880;2022-12-29T11:06:14;101152.41;;;27.54;33.01
72370;BME280;60343;-32.030;115.880;2022-12-29T11:08:51;101160.63;;;27.49;33.59
72370;BME280;60343;-32.030;115.880;2022-12-29T11:11:26;101163.38;;;27.39;33.57
72370;BME280;60343;-32.030;115.880;2022-12-29T11:13:58;101158.13;;;27.22;34.03
72370;BME280;60343;-32.030;115.880;2022-12-29T11:16:30;101154.00;;;26.99;34.56
72370;BME280;60343;-32.030;115.880;2022-12-29T11:19:04;101156.47;;;26.91;34.88
72370;BME280;60343;-32.030;115.880;2022-12-29T11:21:34;101155.84;;;26.68;35.34
72370;BME280;60343;-32.030;115.880;2022-12-29T11:24:03;101164.63;;;26.65;35.30
72370;BME280;60343;-32.030;115.880;2022-12-29T11:26:32;101156.59;;;26.48;35.60
72370;BME280;60343;-32.030;115.880;2022-12-29T11:29:25;101156.84;;;26.42;35.70
72370;BME280;60343;-32.030;115.880;2022-12-29T11:31:54;101149.69;;;26.41;35.66
72370;BME280;60343;-32.030;115.880;2022-12-29T11:34:32;101151.03;;;26.28;36.26
72370;BME280;60343;-32.030;115.880;2022-12-29T11:36:59;101149.66;;;26.31;36.36
72370;BME280;60343;-32.030;115.880;2022-12-29T11:39:31;101149.88;;;26.19;36.42
72370;BME280;60343;-32.030;115.880;2022-12-29T11:42:01;101145.66;;;26.06;36.89
72370;BME280;60343;-32.030;115.880;2022-12-29T11:44:32;101150.81;;;25.93;37.13
72370;BME280;60343;-32.030;115.880;2022-12-29T11:47:03;101144.97;;;25.79;37.54
72370;BME280;60343;-32.030;115.880;2022-12-29T11:49:36;101147.94;;;25.73;37.50
72370;BME280;60343;-32.030;115.880;2022-12-29T11:52:06;101145.16;;;25.68;37.29
72370;BME280;60343;-32.030;115.880;2022-12-29T11:54:36;101151.50;;;25.68;37.09
72370;BME280;60343;-32.030;115.880;2022-12-29T11:57:11;101152.34;;;25.74;36.44
72370;BME280;60343;-32.030;115.880;2022-12-29T11:59:44;101148.28;;;25.81;35.98
72370;BME280;60343;-32.030;115.880;2022-12-29T12:02:36;101159.06;;;25.93;35.54
72370;BME280;60343;-32.030;115.880;2022-12-29T12:05:21;101156.56;;;25.91;35.20
72370;BME280;60343;-32.030;115.880;2022-12-29T12:07:54;101160.41;;;25.95;34.43
72370;BME280;60343;-32.030;115.880;2022-12-29T12:10:26;101157.19;;;26.03;34.15
72370;BME280;60343;-32.030;115.880;2022-12-29T12:12:56;101160.69;;;25.89;34.39
72370;BME280;60343;-32.030;115.880;2022-12-29T12:15:29;101156.72;;;25.70;34.80
72370;BME280;60343;-32.030;115.880;2022-12-29T12:18:02;101158.59;;;25.64;34.83
72370;BME280;60343;-32.030;115.880;2022-12-29T12:20:44;101161.50;;;25.52;34.98
72370;BME280;60343;-32.030;115.880;2022-12-29T12:23:25;101161.28;;;25.27;35.75
72370;BME280;60343;-32.030;115.880;2022-12-29T12:26:00;101165.59;;;25.50;34.92
72370;BME280;60343;-32.030;115.880;2022-12-29T12:28:36;101161.91;;;25.34;35.24
72370;BME280;60343;-32.030;115.880;2022-12-29T12:31:17;101159.25;;;25.44;35.05
72370;BME280;60343;-32.030;115.880;2022-12-29T12:33:50;101164.28;;;25.26;35.08
72370;BME280;60343;-32.030;115.880;2022-12-29T12:36:40;101176.03;;;25.21;35.07
72370;BME280;60343;-32.030;115.880;2022-12-29T12:41:09;101165.59;;;24.91;35.77
72370;BME280;60343;-32.030;115.880;2022-12-29T12:43:44;101177.00;;;24.83;35.67
72370;BME280;60343;-32.030;115.880;2022-12-29T12:49:37;101177.66;;;24.68;36.16